Flight Track Log - Related Links

Times and Time Zones

All times are in EDT time to prevent confusion due to time zone crossing. See the CCA4491 flight status page for this flight to view local times or setup timezone preferences in your user account.

Time Position Orientation Groundspeed Altitude Reporting Facility
EDT Latitude Longitude Course Direction KTS MPH feet Rate Location/Type
Mon 08:59:03 PM 30.5660 103.9410 360° North 70 81  Level FlightAware ADS-B
Mon 08:59:23 PM 30.5760 103.9460 23° Northeast 145 167 3,385 Level FlightAware ADS-B
Mon 08:59:42 PM 30.5900 103.9520 20° North 153 176 2,200 4,500 Climbing FlightAware ADS-B
Mon 09:00:07 PM 30.6060 103.9600 23° Northeast 150 173 3,300 2,550 Climbing FlightAware ADS-B
Mon 09:00:22 PM 30.6160 103.9640 19° North 152 175 3,900 2,364 Climbing FlightAware ADS-B
Mon 09:00:40 PM 30.6280 103.9700 23° Northeast 153 176 4,600 1,737 Climbing FlightAware ADS-B
Mon 09:01:00 PM 30.6420 103.9770 23° Northeast 176 203 5,000 1,200 Climbing FlightAware ADS-B
Mon 09:01:20 PM 30.6580 103.9840 21° North 201 231 5,400 1,364 Climbing FlightAware ADS-B
Mon 09:01:44 PM 30.6810 103.9950 22° Northeast 234 269 6,000 1,500 Climbing FlightAware ADS-B
Mon 09:01:56 PM 30.6930 104.0020 27° Northeast 250 288 6,300 1,667 Climbing FlightAware ADS-B
Mon 09:02:02 PM 30.6980 104.0070 41° Northeast 258 297 6,500 2,143 Climbing FlightAware ADS-B
Mon 09:02:10 PM 30.7050 104.0150 44° Northeast 266 306 6,800 2,500 Climbing FlightAware ADS-B
Mon 09:02:26 PM 30.7200 104.0320 44° Northeast 273 314 7,500 2,769 Climbing FlightAware ADS-B
Mon 09:02:36 PM 30.7300 104.0420 41° Northeast 277 319 8,000 2,400 Climbing FlightAware ADS-B
Mon 09:02:46 PM 30.7390 104.0520 44° Northeast 282 325 8,300 1,667 Climbing FlightAware ADS-B
Mon 09:02:54 PM 30.7450 104.0610 52° Northeast 283 326 8,500 643 Climbing FlightAware ADS-B
Mon 09:03:14 PM 30.7560 104.0890 65° Northeast 284 327 8,600 600 Climbing FlightAware ADS-B
Mon 09:03:34 PM 30.7680 104.1170 63° Northeast 283 326 8,900 1,857 Climbing FlightAware ADS-B
Mon 09:03:56 PM 30.7800 104.1490 66° East 293 337 9,900 2,893 Climbing FlightAware ADS-B
Mon 09:04:30 PM 30.7980 104.1980 67° East 298 343 11,600 2,657 Climbing FlightAware ADS-B
Mon 09:05:06 PM 30.8190 104.2510 65° Northeast 314 361 13,000 2,087 Climbing FlightAware ADS-B
Mon 09:05:39 PM 30.8420 104.3020 62° Northeast 337 388 14,000 1,913 Climbing FlightAware ADS-B
Mon 09:06:15 PM 30.8750 104.3570 55° Northeast 354 407 15,200 2,137 Climbing FlightAware ADS-B
Mon 09:06:52 PM 30.9100 104.4170 56° Northeast 360 414 16,600 1,959 Climbing FlightAware ADS-B
Mon 09:07:04 PM 30.9240 104.4330 44° Northeast 367 422 16,800 1,286 Climbing FlightAware ADS-B
Mon 09:07:20 PM 30.9490 104.4470 26° Northeast 366 421 17,200 1,286 Climbing FlightAware ADS-B
Mon 09:07:32 PM 30.9690 104.4500 North 366 421 17,400 750 Climbing FlightAware ADS-B
Mon 09:08:00 PM 31.0170 104.4460 356° North 378 435 17,700 364 Climbing FlightAware ADS-B
Mon 09:08:38 PM 31.0850 104.4400 356° North 380 437 17,800 857 Climbing FlightAware ADS-B
Mon 09:09:10 PM 31.1400 104.4370 357° North 380 437 18,700 2,735 Climbing FlightAware ADS-B
Mon 09:09:46 PM 31.2000 104.4340 358° North 346 398 20,900 2,704 Climbing FlightAware ADS-B
Mon 09:10:21 PM 31.2560 104.4320 358° North 352 405 21,900 1,853 Climbing FlightAware ADS-B
Mon 09:10:54 PM 31.3110 104.4300 358° North 351 404 23,000 1,500 Climbing FlightAware ADS-B
Mon 09:11:29 PM 31.3680 104.4280 358° North 358 412 23,600 500 Climbing FlightAware ADS-B
Mon 09:12:06 PM 31.4290 104.4250 358° North 356 410 23,600  Level FlightAware ADS-B
Mon 09:12:42 PM 31.4880 104.4220 358° North 356 410 23,600  Level FlightAware ADS-B
Mon 09:13:16 PM 31.5450 104.4190 357° North 355 409 23,600  Level FlightAware ADS-B
Mon 09:13:52 PM 31.6050 104.4160 358° North 363 418 23,600  Level FlightAware ADS-B
Mon 09:14:24 PM 31.6590 104.4140 358° North 370 426 23,600  Level FlightAware ADS-B
Mon 09:15:00 PM 31.7200 104.4110 358° North 372 428 23,600  Level FlightAware ADS-B
Mon 09:15:36 PM 31.7830 104.4070 357° North 372 428 23,600  Level FlightAware ADS-B
Mon 09:16:08 PM 31.8390 104.4040 357° North 375 432 23,600  Level FlightAware ADS-B
Mon 09:16:46 PM 31.9040 104.4010 358° North 368 423 23,600  Level FlightAware ADS-B
Mon 09:17:22 PM 31.9650 104.3980 358° North 362 417 23,600  Level FlightAware ADS-B
Mon 09:17:50 PM 32.0120 104.3960 358° North 362 417 23,600  Level FlightAware ADS-B
Mon 09:18:22 PM 32.0660 104.3930 357° North 361 415 23,600  Level FlightAware ADS-B
Mon 09:19:00 PM 32.1290 104.3890 357° North 362 417 23,600  Level FlightAware ADS-B
Mon 09:19:36 PM 32.1870 104.3750 348° North 356 410 23,600  Level FlightAware ADS-B
Mon 09:20:08 PM 32.2390 104.3610 347° North 358 412 23,600  Level FlightAware ADS-B
Mon 09:20:45 PM 32.2980 104.3460 348° North 359 413 23,600  Level FlightAware ADS-B
Mon 09:21:18 PM 32.3530 104.3310 347° North 358 412 23,600  Level FlightAware ADS-B
Mon 09:21:56 PM 32.4130 104.3120 345° North 348 400 23,600  Level FlightAware ADS-B
Mon 09:22:16 PM 32.4390 104.2920 327° Northwest 347 399 23,600  Level FlightAware ADS-B
Mon 09:22:28 PM 32.4520 104.2740 311° West 346 398 23,600  Level FlightAware ADS-B
Mon 09:23:10 PM 32.4860 104.2210 307° West 346 398 23,600  Level FlightAware ADS-B
Mon 09:23:46 PM 32.5150 104.1750 307° West 346 398 23,600  Level FlightAware ADS-B
Mon 09:24:22 PM 32.5450 104.1280 307° West 346 398 23,600  Level FlightAware ADS-B
Mon 09:24:58 PM 32.5740 104.0820 307° West 346 398 23,600  Level FlightAware ADS-B
Mon 09:25:36 PM 32.6050 104.0330 307° West 346 398 23,600  Level FlightAware ADS-B
Mon 09:26:12 PM 32.6350 103.9870 308° West 346 398 23,600  Level FlightAware ADS-B
Mon 09:28:00 PM 32.8570 103.6830 311° West  Level Estimated

Login

Don't have an account? Register now (free) for customized features, flight alerts, and more!